Green Lofoten — P3MG8 — position and weather

sailwx.info

Track history (hours):
 
Tides and Currents Weather Stations Pressure Air Temp Water Temp Dewpoint Dewpoint Depression Visibility Wind Speed Wind Dir Waves Ship Positions

Green Lofoten

Last reported at 2017-Feb-17 21:33 UTC. Time now 2017-Feb-20 11:07 UTC.
Position N 39°38' W 009°51'.

Length 98 m; draft 4.6 m.

Type: Ship. MMSI: 212857000.

Date/timePositionNaut miles runAvg speedWind from/ knotsBaromVisibWave heightAir tempDewpointWater temp
2017-Feb-17 21:33N 39°38' W 009°51'2613.2
2017-Feb-17 19:33N 39°12' W 009°51'1313.1
2017-Feb-17 18:33N 38°59' W 009°52'1313.4
2017-Feb-17 17:33N 38°46' W 009°52'1313.5
2017-Feb-17 16:33N 38°32' W 009°49'1413.7
2017-Feb-17 15:33N 38°19' W 009°45'1413.5
2017-Feb-17 14:33N 38°06' W 009°41'1413.5
2017-Feb-17 13:33N 37°53' W 009°37'1313.4
2017-Feb-17 12:33N 37°40' W 009°32'1713.3
2017-Feb-17 11:16N 37°23' W 009°27'20412.2
2017-Feb-16 18:34N 35°58' W 005°35'1312.7
2017-Feb-16 17:33N 36°01' W 005°20'1412.5
2017-Feb-16 16:26N 36°04' W 005°03'  
2017-Feb-13 15:33N 36°32' E 014°07'1313.0
2017-Feb-13 14:33N 36°30' E 014°23'1312.7
2017-Feb-13 13:34N 36°29' E 014°39'  
2017-Feb-10 23:17N 40°54' E 028°45'1012.8
2017-Feb-10 22:31N 40°58' E 028°57'32812.1
2017-Feb-09 19:21N 46°14' E 030°55'1213.5
2017-Feb-09 18:29N 46°26' E 030°55'3310.8
2017-Feb-09 15:25N 46°36' E 031°42'910.5
2017-Feb-09 14:33N 46°38' E 031°54'9 8.7
2017-Feb-09 13:33N 46°47' E 031°53'1110.7
2017-Feb-09 12:33N 46°56' E 032°01'1 0.7
2017-Feb-09 11:33N 46°57' E 032°01'0 0.0
2017-Feb-09 10:33N 46°57' E 032°01'0 0.0
2017-Feb-09 09:33N 46°57' E 032°01'0 0.0
2017-Feb-09 08:33N 46°57' E 032°01'0 0.0
2017-Feb-09 07:30N 46°57' E 032°01'0 0.0
2017-Feb-09 06:33N 46°57' E 032°01'0 0.0
2017-Feb-09 05:33N 46°57' E 032°01'0 0.0
2017-Feb-09 04:33N 46°57' E 032°01'0 0.0
2017-Feb-09 03:33N 46°57' E 032°01'0 0.0
2017-Feb-09 02:33N 46°57' E 032°01'0 0.0
2017-Feb-09 01:33N 46°57' E 032°01'0 0.0
2017-Feb-09 00:30N 46°57' E 032°01'0 0.0
2017-Feb-08 23:33N 46°57' E 032°01'0 0.0
2017-Feb-08 22:33N 46°57' E 032°01'0 0.0
2017-Feb-08 21:33N 46°57' E 032°01'0 0.0
2017-Feb-08 20:33N 46°57' E 032°01'0 0.0
2017-Feb-08 19:33N 46°57' E 032°01'0 0.0
2017-Feb-08 18:33N 46°57' E 032°01'0 0.0
2017-Feb-08 17:33N 46°57' E 032°01'0 0.0
2017-Feb-08 16:33N 46°57' E 032°01'0 0.0
2017-Feb-08 15:33N 46°57' E 032°01'0 0.0
2017-Feb-08 14:33N 46°57' E 032°01'0 0.0
2017-Feb-08 13:30N 46°57' E 032°01'0 0.0
2017-Feb-08 12:33N 46°57' E 032°01'0 0.0
2017-Feb-08 11:33N 46°57' E 032°01'0 0.0
2017-Feb-08 10:33N 46°57' E 032°01'0 0.0
2017-Feb-08 09:33N 46°57' E 032°01'0 0.0
2017-Feb-08 08:33N 46°57' E 032°01'0 0.0
2017-Feb-08 07:33N 46°57' E 032°01'0 0.0
2017-Feb-08 06:33N 46°57' E 032°01'0 0.0
2017-Feb-08 05:33N 46°57' E 032°01'0 0.0
2017-Feb-08 04:33N 46°57' E 032°01'0 0.0
2017-Feb-08 03:33N 46°57' E 032°01'0 0.0
2017-Feb-08 02:33N 46°57' E 032°01'0 0.0
2017-Feb-08 01:33N 46°57' E 032°01'0 0.0
2017-Feb-08 00:33N 46°57' E 032°01'0 0.0
2017-Feb-07 23:33N 46°57' E 032°01'0 0.0
2017-Feb-07 22:33N 46°57' E 032°01'  
Track history (hours):
 
Tides and Currents Weather Stations Pressure Air Temp Water Temp Dewpoint Dewpoint Depression Visibility Wind Speed Wind Dir Waves Ship Positions

Green Lofoten

Last reported at 2017-Feb-17 21:33 UTC. Time now 2017-Feb-20 11:07 UTC.
Position N 39°38' W 009°51'.

Length 98 m; draft 4.6 m.

Type: Ship. MMSI: 212857000.

Date/timePositionNaut miles runAvg speedWind from/ knotsBaromVisibWave heightAir tempDewpointWater temp
2017-Feb-17 21:33N 39°38' W 009°51'2613.2
2017-Feb-17 19:33N 39°12' W 009°51'1313.1
2017-Feb-17 18:33N 38°59' W 009°52'1313.4
2017-Feb-17 17:33N 38°46' W 009°52'1313.5
2017-Feb-17 16:33N 38°32' W 009°49'1413.7
2017-Feb-17 15:33N 38°19' W 009°45'1413.5
2017-Feb-17 14:33N 38°06' W 009°41'1413.5
2017-Feb-17 13:33N 37°53' W 009°37'1313.4
2017-Feb-17 12:33N 37°40' W 009°32'1713.3
2017-Feb-17 11:16N 37°23' W 009°27'20412.2
2017-Feb-16 18:34N 35°58' W 005°35'1312.7
2017-Feb-16 17:33N 36°01' W 005°20'1412.5
2017-Feb-16 16:26N 36°04' W 005°03'  
2017-Feb-13 15:33N 36°32' E 014°07'1313.0
2017-Feb-13 14:33N 36°30' E 014°23'1312.7
2017-Feb-13 13:34N 36°29' E 014°39'  
2017-Feb-10 23:17N 40°54' E 028°45'1012.8
2017-Feb-10 22:31N 40°58' E 028°57'32812.1
2017-Feb-09 19:21N 46°14' E 030°55'1213.5
2017-Feb-09 18:29N 46°26' E 030°55'3310.8
2017-Feb-09 15:25N 46°36' E 031°42'910.5
2017-Feb-09 14:33N 46°38' E 031°54'9 8.7
2017-Feb-09 13:33N 46°47' E 031°53'1110.7
2017-Feb-09 12:33N 46°56' E 032°01'1 0.7
2017-Feb-09 11:33N 46°57' E 032°01'0 0.0
2017-Feb-09 10:33N 46°57' E 032°01'0 0.0
2017-Feb-09 09:33N 46°57' E 032°01'0 0.0
2017-Feb-09 08:33N 46°57' E 032°01'0 0.0
2017-Feb-09 07:30N 46°57' E 032°01'0 0.0
2017-Feb-09 06:33N 46°57' E 032°01'0 0.0
2017-Feb-09 05:33N 46°57' E 032°01'0 0.0
2017-Feb-09 04:33N 46°57' E 032°01'0 0.0
2017-Feb-09 03:33N 46°57' E 032°01'0 0.0
2017-Feb-09 02:33N 46°57' E 032°01'0 0.0
2017-Feb-09 01:33N 46°57' E 032°01'0 0.0
2017-Feb-09 00:30N 46°57' E 032°01'0 0.0
2017-Feb-08 23:33N 46°57' E 032°01'0 0.0
2017-Feb-08 22:33N 46°57' E 032°01'0 0.0
2017-Feb-08 21:33N 46°57' E 032°01'0 0.0
2017-Feb-08 20:33N 46°57' E 032°01'0 0.0
2017-Feb-08 19:33N 46°57' E 032°01'0 0.0
2017-Feb-08 18:33N 46°57' E 032°01'0 0.0
2017-Feb-08 17:33N 46°57' E 032°01'0 0.0
2017-Feb-08 16:33N 46°57' E 032°01'0 0.0
2017-Feb-08 15:33N 46°57' E 032°01'0 0.0
2017-Feb-08 14:33N 46°57' E 032°01'0 0.0
2017-Feb-08 13:30N 46°57' E 032°01'0 0.0
2017-Feb-08 12:33N 46°57' E 032°01'0 0.0
2017-Feb-08 11:33N 46°57' E 032°01'0 0.0
2017-Feb-08 10:33N 46°57' E 032°01'0 0.0
2017-Feb-08 09:33N 46°57' E 032°01'0 0.0
2017-Feb-08 08:33N 46°57' E 032°01'0 0.0
2017-Feb-08 07:33N 46°57' E 032°01'0 0.0
2017-Feb-08 06:33N 46°57' E 032°01'0 0.0
2017-Feb-08 05:33N 46°57' E 032°01'0 0.0
2017-Feb-08 04:33N 46°57' E 032°01'0 0.0
2017-Feb-08 03:33N 46°57' E 032°01'0 0.0
2017-Feb-08 02:33N 46°57' E 032°01'0 0.0
2017-Feb-08 01:33N 46°57' E 032°01'0 0.0
2017-Feb-08 00:33N 46°57' E 032°01'0 0.0
2017-Feb-07 23:33N 46°57' E 032°01'0 0.0
2017-Feb-07 22:33N 46°57' E 032°01'  

Dump ship's entire track history